Time;durP1;ratioP1;P1;durP2;ratioP2;P2;SDS_P1;SDS_P2;PMS_P1;PMS_P2;Temp;Humidity;BMP_temperature;BMP_pressure;BME280_temperature;BME280_humidity;BME280_pressure;Samples;Min_cycle;Max_cycle;Signal;HPM_P1;HPM_P2
2021/12/17 00:00:59;;;;;;;0.40;0.30;;;1.70;99.90;;;;;;5100949;28;20773;-71
2021/12/17 00:03:39;;;;;;;0.55;0.38;;;1.70;99.90;;;;;;5099701;28;20403;-71
2021/12/17 00:08:38;;;;;;;0.40;0.40;;;1.70;99.90;;;;;;5100375;28;20577;-72
2021/12/17 00:11:05;;;;;;;0.40;0.30;;;1.70;99.90;;;;;;5101070;28;20773;-72
2021/12/17 00:13:32;;;;;;;0.40;0.30;;;1.70;99.90;;;;;;5099054;28;20504;-71
2021/12/17 00:15:59;;;;;;;0.40;0.20;;;1.60;99.90;;;;;;5099687;28;20400;-71
2021/12/17 00:18:32;;;;;;;0.40;0.20;;;1.60;99.90;;;;;;5100862;28;20392;-72
2021/12/17 00:48:35;;;;;;;0.40;0.20;;;1.40;99.90;;;;;;5099946;28;20518;-72
2021/12/17 00:51:33;;;;;;;0.40;0.20;;;1.40;99.90;;;;;;5082701;28;20392;-71
2021/12/17 00:53:50;;;;;;;0.40;0.20;;;1.40;99.90;;;;;;5100291;28;21035;-71
2021/12/17 00:56:15;;;;;;;0.90;0.80;;;1.40;99.90;;;;;;5099527;28;20412;-72
2021/12/17 00:58:41;;;;;;;0.40;0.20;;;1.30;99.90;;;;;;5099838;28;20886;-72
2021/12/17 01:01:07;;;;;;;0.40;0.30;;;1.30;99.90;;;;;;5098984;28;20389;-72
2021/12/17 01:03:33;;;;;;;0.40;0.30;;;1.30;99.90;;;;;;5098214;28;20939;-72
2021/12/17 01:05:58;;;;;;;0.75;0.57;;;1.30;99.90;;;;;;5099349;28;20376;-71
2021/12/17 01:08:24;;;;;;;0.50;0.50;;;1.30;99.90;;;;;;5099151;28;20884;-72
2021/12/17 01:10:55;;;;;;;0.40;0.25;;;1.30;99.90;;;;;;5099885;28;20380;-72
2021/12/17 01:13:22;;;;;;;1.10;1.00;;;1.30;99.90;;;;;;5098031;28;21194;-72
2021/12/17 01:15:48;;;;;;;0.50;0.27;;;1.70;99.90;;;;;;5099873;28;20416;-71
2021/12/17 01:18:18;;;;;;;0.40;0.20;;;1.30;99.90;;;;;;5099006;28;20376;-72
2021/12/17 01:36:36;;;;;;;0.40;0.30;;;1.30;99.90;;;;;;5098339;28;20488;-72
2021/12/17 01:42:05;;;;;;;0.40;0.30;;;1.20;99.90;;;;;;5096979;28;20499;-72
2021/12/17 01:44:36;;;;;;;0.40;0.20;;;1.30;99.90;;;;;;5098764;28;20384;-72
2021/12/17 01:47:04;;;;;;;0.40;0.20;;;1.30;99.90;;;;;;5098670;28;20495;-72
2021/12/17 02:00:15;;;;;;;1.17;1.08;;;1.30;99.90;;;;;;5098763;28;21626;-72
2021/12/17 02:02:49;;;;;;;0.40;0.30;;;1.30;99.90;;;;;;5096332;28;20944;-72
2021/12/17 02:05:15;;;;;;;0.40;0.20;;;1.30;99.90;;;;;;5098332;28;20951;-71
2021/12/17 02:07:42;;;;;;;0.40;0.20;;;1.40;99.90;;;;;;5098016;28;20369;-72
2021/12/17 02:32:02;;;;;;;0.40;0.20;;;1.50;99.90;;;;;;5067390;28;20444;-72
2021/12/17 02:37:22;;;;;;;0.40;0.20;;;1.40;99.90;;;;;;5097352;28;20453;-73
2021/12/17 02:47:34;;;;;;;0.40;0.23;;;1.60;99.90;;;;;;5097309;28;20454;-73
2021/12/17 02:50:00;;;;;;;0.40;0.30;;;1.60;99.90;;;;;;5097522;28;20414;-72
2021/12/17 02:52:30;;;;;;;0.40;0.30;;;1.60;99.90;;;;;;5096340;28;20449;-73
2021/12/17 02:54:58;;;;;;;0.70;0.70;;;1.60;99.90;;;;;;5097955;28;20806;-72
2021/12/17 02:57:25;;;;;;;0.40;0.30;;;1.40;99.90;;;;;;5096795;28;20391;-72
2021/12/17 02:59:51;;;;;;;0.40;0.20;;;1.40;99.90;;;;;;5097790;28;20385;-72
2021/12/17 03:02:18;;;;;;;1.00;1.00;;;1.40;99.90;;;;;;5096429;28;20390;-72
2021/12/17 03:04:45;;;;;;;0.40;0.30;;;1.30;99.90;;;;;;5097206;28;20388;-71
2021/12/17 03:07:13;;;;;;;0.57;0.43;;;1.30;99.90;;;;;;5097315;28;20487;-71
2021/12/17 03:12:20;;;;;;;0.40;0.20;;;1.30;99.90;;;;;;5100889;28;20397;-71
2021/12/17 03:14:57;;;;;;;0.50;0.50;;;1.30;99.90;;;;;;5100834;28;20448;-70
2021/12/17 03:17:49;;;;;;;0.40;0.20;;;1.40;99.90;;;;;;5083296;28;20423;-71
2021/12/17 03:25:38;;;;;;;0.40;0.30;;;1.50;99.90;;;;;;5100339;28;20434;-72
2021/12/17 03:28:04;;;;;;;0.40;0.30;;;1.70;99.90;;;;;;5101009;28;20404;-72
2021/12/17 03:30:29;;;;;;;0.40;0.20;;;1.70;99.90;;;;;;5102404;28;20401;-71
2021/12/17 03:32:55;;;;;;;0.40;0.30;;;1.50;99.90;;;;;;5099967;28;20434;-71
2021/12/17 03:35:21;;;;;;;0.40;0.20;;;1.60;99.90;;;;;;5101565;28;20380;-72
2021/12/17 03:37:47;;;;;;;0.40;0.20;;;1.60;99.90;;;;;;5101056;28;20492;-72
2021/12/17 03:40:16;;;;;;;0.40;0.20;;;1.70;99.90;;;;;;5101178;28;20402;-71
2021/12/17 03:42:47;;;;;;;0.40;0.20;;;1.80;99.90;;;;;;5100050;28;20428;-72
2021/12/17 03:45:13;;;;;;;0.40;0.20;;;1.70;99.90;;;;;;5101138;28;20813;-72
2021/12/17 03:47:39;;;;;;;0.40;0.20;;;1.50;99.90;;;;;;5100948;28;20742;-72
2021/12/17 03:50:05;;;;;;;0.40;0.30;;;1.50;99.90;;;;;;5100883;28;20454;-72
2021/12/17 03:52:31;;;;;;;0.40;0.27;;;1.50;99.90;;;;;;5081998;28;20406;-72
2021/12/17 03:54:57;;;;;;;0.40;0.20;;;1.40;99.90;;;;;;5100937;28;20412;-74
2021/12/17 03:57:23;;;;;;;0.40;0.30;;;1.30;99.90;;;;;;5101102;28;20395;-72
2021/12/17 03:59:49;;;;;;;0.50;0.50;;;1.20;99.90;;;;;;5100580;28;20456;-72
2021/12/17 04:02:15;;;;;;;0.40;0.20;;;1.30;99.90;;;;;;5098908;28;21042;-71
2021/12/17 04:04:42;;;;;;;0.40;0.20;;;1.20;99.90;;;;;;5100559;28;20395;-72
2021/12/17 04:07:08;;;;;;;0.40;0.20;;;1.30;99.90;;;;;;5100550;28;20396;-72
2021/12/17 04:09:33;;;;;;;0.40;0.30;;;1.40;99.90;;;;;;5101124;28;20369;-72
2021/12/17 04:12:04;;;;;;;0.40;0.40;;;1.40;99.90;;;;;;5100331;28;20435;-72
2021/12/17 04:14:41;;;;;;;0.50;0.50;;;1.40;99.90;;;;;;5100989;28;20412;-71
2021/12/17 04:17:07;;;;;;;0.40;0.20;;;1.30;99.90;;;;;;5099615;28;20911;-72
2021/12/17 04:19:33;;;;;;;0.70;0.70;;;1.20;99.90;;;;;;5100993;28;20386;-72
2021/12/17 04:21:59;;;;;;;0.40;0.20;;;1.30;99.90;;;;;;5099371;28;20407;-72
2021/12/17 04:24:25;;;;;;;0.50;0.50;;;1.10;99.90;;;;;;5099626;28;20392;-71
2021/12/17 04:26:51;;;;;;;0.50;0.50;;;1.10;99.90;;;;;;5100047;28;20403;-71
2021/12/17 04:29:18;;;;;;;0.40;0.20;;;1.30;99.90;;;;;;5099169;28;20396;-71
2021/12/17 04:31:50;;;;;;;0.40;0.20;;;1.40;99.90;;;;;;5099690;28;20441;-72
2021/12/17 04:34:17;;;;;;;0.40;0.20;;;1.30;99.90;;;;;;5099528;28;20562;-72
2021/12/17 04:36:44;;;;;;;0.40;0.20;;;1.20;99.90;;;;;;5100382;28;20882;-71
2021/12/17 04:39:10;;;;;;;0.40;0.20;;;1.40;99.90;;;;;;5100891;28;20845;-72
2021/12/17 04:41:46;;;;;;;0.40;0.20;;;1.60;99.90;;;;;;5098264;28;20384;-72
2021/12/17 04:44:21;;;;;;;0.40;0.20;;;1.60;99.90;;;;;;5099943;28;20416;-72
2021/12/17 04:57:15;;;;;;;0.40;0.20;;;1.80;99.90;;;;;;5099646;28;20380;-72
2021/12/17 04:57:53;;;;;;;0.40;0.30;;;1.90;99.90;;;;;;5085074;28;20782;-71
2021/12/17 05:00:26;;;;;;;0.40;0.20;;;2.00;99.90;;;;;;5099782;28;20872;-72
2021/12/17 05:02:55;;;;;;;1.10;0.80;;;1.90;99.90;;;;;;5098443;28;20456;-71
2021/12/17 05:05:29;;;;;;;0.40;0.20;;;2.00;99.90;;;;;;5099764;28;20390;-72
2021/12/17 05:08:01;;;;;;;0.40;0.20;;;2.00;99.90;;;;;;5098892;28;20472;-72
2021/12/17 05:10:52;;;;;;;0.40;0.20;;;1.80;99.90;;;;;;5100181;28;20447;-72
2021/12/17 05:19:04;;;;;;;0.40;0.40;;;1.90;99.90;;;;;;5099643;28;20383;-72
2021/12/17 05:21:30;;;;;;;2.00;0.80;;;1.70;99.90;;;;;;5099188;28;20855;-72
2021/12/17 05:23:56;;;;;;;0.90;0.60;;;1.90;99.90;;;;;;5098539;28;20474;-72
2021/12/17 05:26:22;;;;;;;0.50;0.50;;;2.00;99.90;;;;;;5098719;28;20417;-72
2021/12/17 05:28:49;;;;;;;0.40;0.30;;;2.00;99.90;;;;;;5099228;28;20396;-71
2021/12/17 05:31:18;;;;;;;0.77;0.77;;;2.00;99.90;;;;;;5098466;28;20393;-72
2021/12/17 05:33:44;;;;;;;0.80;0.80;;;1.90;99.90;;;;;;5099686;28;20405;-71
2021/12/17 05:36:10;;;;;;;0.40;0.20;;;1.80;99.90;;;;;;5098833;28;20774;-71
2021/12/17 05:38:35;;;;;;;0.40;0.20;;;1.90;99.90;;;;;;5099710;28;20763;-71
2021/12/17 05:41:01;;;;;;;0.40;0.40;;;1.90;99.90;;;;;;5098724;28;20384;-71
2021/12/17 05:43:28;;;;;;;0.40;0.20;;;1.90;99.90;;;;;;5079624;28;20412;-71
2021/12/17 05:48:26;;;;;;;0.40;0.30;;;1.80;99.90;;;;;;5099172;28;20392;-71
2021/12/17 05:50:57;;;;;;;0.40;0.20;;;1.70;99.90;;;;;;5099600;28;20972;-72
2021/12/17 05:53:24;;;;;;;0.90;0.80;;;1.60;99.90;;;;;;5096925;28;20480;-71
2021/12/17 05:55:50;;;;;;;0.50;0.50;;;1.60;99.90;;;;;;5099388;28;20985;-72
2021/12/17 05:58:16;;;;;;;0.40;0.20;;;1.60;99.90;;;;;;5098620;28;20445;-71
2021/12/17 06:00:44;;;;;;;0.40;0.30;;;1.50;99.90;;;;;;5098665;28;20604;-72
2021/12/17 06:03:10;;;;;;;0.40;0.20;;;1.50;99.90;;;;;;5098245;28;20396;-72
2021/12/17 06:05:36;;;;;;;0.40;0.20;;;1.50;99.90;;;;;;5097845;28;20460;-71
2021/12/17 06:08:03;;;;;;;0.40;0.40;;;1.40;99.90;;;;;;5098786;28;20441;-72
2021/12/17 06:10:28;;;;;;;0.70;0.50;;;1.20;99.90;;;;;;5098893;28;20780;-73
2021/12/17 06:12:54;;;;;;;0.40;0.30;;;1.20;99.90;;;;;;5097983;28;20385;-72
2021/12/17 06:15:23;;;;;;;0.40;0.20;;;1.20;99.90;;;;;;5098567;28;20472;-73
2021/12/17 06:17:50;;;;;;;0.40;0.22;;;1.30;99.90;;;;;;5098662;28;20391;-72
2021/12/17 06:20:17;;;;;;;0.40;0.40;;;1.40;99.90;;;;;;5080876;28;20870;-72
2021/12/17 06:22:43;;;;;;;0.40;0.20;;;1.30;99.90;;;;;;5078509;28;20745;-72
2021/12/17 06:25:11;;;;;;;0.80;0.80;;;1.40;99.90;;;;;;5098008;28;20404;-72
2021/12/17 06:27:37;;;;;;;0.40;0.30;;;1.40;99.90;;;;;;5097428;28;20377;-73
2021/12/17 06:30:09;;;;;;;0.40;0.20;;;1.10;99.90;;;;;;5098598;28;20392;-72
2021/12/17 06:32:34;;;;;;;1.10;1.00;;;1.30;99.90;;;;;;5096714;28;20813;-72
2021/12/17 06:35:00;;;;;;;0.40;0.30;;;1.50;99.90;;;;;;5098290;28;20416;-72
2021/12/17 06:37:26;;;;;;;2.00;0.90;;;1.40;99.90;;;;;;5098827;28;20775;-72
2021/12/17 06:39:52;;;;;;;0.40;0.30;;;1.20;99.90;;;;;;5098235;28;20544;-72
2021/12/17 06:42:18;;;;;;;0.40;0.20;;;1.30;99.90;;;;;;5097992;28;20389;-72
2021/12/17 06:44:46;;;;;;;0.40;0.20;;;1.20;99.90;;;;;;5096757;28;20395;-71
2021/12/17 06:47:26;;;;;;;0.40;0.20;;;1.10;99.90;;;;;;5097896;28;20722;-72
2021/12/17 07:06:07;;;;;;;0.80;0.55;;;1.20;99.90;;;;;;5097253;28;20383;-72
2021/12/17 07:11:01;;;;;;;0.70;0.70;;;1.10;99.90;;;;;;5095370;28;20467;-72
2021/12/17 07:35:02;;;;;;;0.40;0.20;;;1.10;99.90;;;;;;5096519;28;20416;-72
2021/12/17 07:39:43;;;;;;;0.40;0.20;;;0.90;99.90;;;;;;5099925;28;20389;-72
2021/12/17 07:42:09;;;;;;;0.68;0.47;;;0.90;99.90;;;;;;5095149;28;20392;-73
2021/12/17 07:44:35;;;;;;;0.40;0.20;;;1.00;99.90;;;;;;5095110;28;21030;-72
2021/12/17 07:47:01;;;;;;;0.40;0.20;;;1.00;99.90;;;;;;5095908;28;20463;-72
2021/12/17 07:49:27;;;;;;;0.90;0.90;;;0.90;99.90;;;;;;5091881;28;20478;-73
2021/12/17 07:51:52;;;;;;;0.60;0.60;;;1.20;99.90;;;;;;5093806;28;20507;-72
2021/12/17 07:54:18;;;;;;;0.40;0.40;;;1.30;99.90;;;;;;5094890;28;20431;-71
2021/12/17 07:56:45;;;;;;;0.40;0.20;;;1.50;99.90;;;;;;5098929;28;20383;-71
2021/12/17 07:59:13;;;;;;;0.40;0.20;;;1.50;99.90;;;;;;5099630;28;20475;-73
2021/12/17 08:01:39;;;;;;;0.40;0.30;;;1.30;99.90;;;;;;5097650;28;20396;-72
2021/12/17 08:04:07;;;;;;;0.60;0.60;;;1.30;99.90;;;;;;5096038;28;20381;-71
2021/12/17 08:06:34;;;;;;;0.40;0.20;;;1.40;99.90;;;;;;5097630;27;20861;-72
2021/12/17 08:09:00;;;;;;;0.70;0.50;;;1.50;99.90;;;;;;5099265;28;20468;-72
2021/12/17 08:11:27;;;;;;;0.55;0.40;;;1.50;99.90;;;;;;5097791;27;20391;-72
2021/12/17 08:13:56;;;;;;;0.40;0.30;;;1.40;99.90;;;;;;5082183;28;20426;-71
2021/12/17 08:31:33;;;;;;;0.98;0.98;;;1.70;99.90;;;;;;5097767;27;21125;-73
2021/12/17 08:34:00;;;;;;;0.60;0.60;;;1.80;99.90;;;;;;5099301;27;20411;-74
2021/12/17 08:36:25;;;;;;;0.40;0.20;;;1.90;99.90;;;;;;5099340;27;20390;-74
2021/12/17 08:38:51;;;;;;;0.40;0.30;;;2.00;99.90;;;;;;5097724;28;20800;-74
2021/12/17 08:41:18;;;;;;;0.40;0.40;;;2.10;99.90;;;;;;5097160;27;20821;-74
2021/12/17 08:43:44;;;;;;;0.40;0.30;;;2.00;99.90;;;;;;5097172;28;20754;-73
2021/12/17 08:46:10;;;;;;;2.27;1.53;;;2.10;99.90;;;;;;5099106;27;20427;-74
2021/12/17 08:48:37;;;;;;;0.40;0.20;;;2.20;99.90;;;;;;5097399;27;21133;-74
2021/12/17 08:51:06;;;;;;;1.00;1.00;;;2.30;99.90;;;;;;5080746;28;20396;-74
2021/12/17 08:53:33;;;;;;;0.40;0.20;;;2.40;99.90;;;;;;5097022;27;20416;-74
2021/12/17 08:55:59;;;;;;;0.60;0.60;;;2.50;99.90;;;;;;5098179;27;20413;-73
2021/12/17 08:58:25;;;;;;;0.40;0.20;;;2.60;99.90;;;;;;5081187;28;20521;-74
2021/12/17 09:00:51;;;;;;;0.40;0.20;;;2.70;99.90;;;;;;5080125;28;21087;-73
2021/12/17 09:03:16;;;;;;;0.65;0.65;;;2.80;99.90;;;;;;5097485;28;20392;-74
2021/12/17 09:05:44;;;;;;;0.40;0.20;;;3.00;99.90;;;;;;5079719;28;20447;-74
2021/12/17 09:08:11;;;;;;;0.40;0.30;;;3.10;99.90;;;;;;5097512;27;21009;-74
2021/12/17 09:10:37;;;;;;;0.60;0.35;;;3.20;99.90;;;;;;5079751;28;20389;-74
2021/12/17 09:13:04;;;;;;;0.80;0.80;;;3.20;99.90;;;;;;5097232;28;20441;-74
2021/12/17 09:15:30;;;;;;;0.55;0.55;;;3.20;99.90;;;;;;5098818;28;20738;-74
2021/12/17 09:17:56;;;;;;;0.40;0.30;;;3.30;99.90;;;;;;5098040;28;20384;-74
2021/12/17 09:20:22;;;;;;;1.30;0.90;;;3.20;99.90;;;;;;5096350;28;20393;-73
2021/12/17 09:22:48;;;;;;;0.95;0.88;;;3.30;99.90;;;;;;5095119;27;20491;-74
2021/12/17 09:25:14;;;;;;;0.60;0.60;;;3.40;99.90;;;;;;5096766;27;20450;-74
2021/12/17 09:27:41;;;;;;;0.40;0.20;;;3.60;99.90;;;;;;5096722;27;20406;-74
2021/12/17 09:30:13;;;;;;;0.40;0.30;;;3.60;99.90;;;;;;5096036;27;20392;-74
2021/12/17 09:32:39;;;;;;;0.40;0.20;;;3.50;99.90;;;;;;5097281;28;20433;-73
2021/12/17 09:35:10;;;;;;;0.40;0.30;;;3.40;99.90;;;;;;5097464;28;20412;-74
2021/12/17 09:37:36;;;;;;;0.60;0.50;;;3.70;99.90;;;;;;5098418;28;20473;-74
2021/12/17 09:40:06;;;;;;;0.70;0.70;;;3.60;99.90;;;;;;5099164;27;20384;-74
2021/12/17 09:42:33;;;;;;;0.60;0.60;;;3.60;99.90;;;;;;5096790;28;20369;-74
2021/12/17 09:44:58;;;;;;;0.40;0.30;;;3.50;99.90;;;;;;5098182;28;20381;-74
2021/12/17 09:47:24;;;;;;;0.40;0.30;;;3.60;99.90;;;;;;5097154;27;20391;-74
2021/12/17 09:49:55;;;;;;;0.40;0.40;;;3.70;99.90;;;;;;5097635;27;20408;-74
2021/12/17 09:52:21;;;;;;;0.80;0.70;;;3.70;99.90;;;;;;5077307;28;20968;-74
2021/12/17 09:54:47;;;;;;;0.40;0.40;;;3.60;99.90;;;;;;5096812;28;20428;-74
2021/12/17 09:57:13;;;;;;;0.40;0.30;;;3.60;99.90;;;;;;5097160;27;20471;-74
2021/12/17 09:59:39;;;;;;;0.40;0.30;;;3.60;99.90;;;;;;5099421;28;20380;-74
2021/12/17 10:02:06;;;;;;;0.90;0.90;;;3.50;99.90;;;;;;5078352;28;20475;-74
2021/12/17 10:04:32;;;;;;;1.10;0.80;;;3.50;99.90;;;;;;5096124;28;20384;-74
2021/12/17 10:07:19;;;;;;;0.70;0.60;;;3.60;99.90;;;;;;5097315;28;20426;-74
2021/12/17 10:09:55;;;;;;;0.40;0.20;;;3.80;99.90;;;;;;5096941;28;20995;-74
2021/12/17 10:12:31;;;;;;;1.60;1.10;;;3.60;99.90;;;;;;5096093;27;20399;-74
2021/12/17 10:15:08;;;;;;;0.60;0.60;;;3.60;99.90;;;;;;5096900;28;20415;-74
2021/12/17 10:17:35;;;;;;;0.40;0.30;;;3.60;99.90;;;;;;5096950;28;20384;-74
2021/12/17 10:20:03;;;;;;;0.50;0.50;;;3.60;99.90;;;;;;5097932;28;20485;-74
2021/12/17 10:22:31;;;;;;;0.47;0.47;;;3.80;99.90;;;;;;5095114;28;20462;-74
2021/12/17 10:25:06;;;;;;;0.40;0.40;;;3.80;99.90;;;;;;5097648;28;20408;-74
2021/12/17 10:27:38;;;;;;;1.20;0.90;;;3.90;99.90;;;;;;5095423;28;20391;-75
2021/12/17 10:30:16;;;;;;;1.10;0.90;;;3.90;99.90;;;;;;5097723;27;20388;-74
2021/12/17 10:32:45;;;;;;;0.50;0.50;;;4.00;99.90;;;;;;5095529;28;20582;-75
2021/12/17 10:35:14;;;;;;;0.90;0.90;;;4.30;99.90;;;;;;5096603;28;20408;-74
2021/12/17 10:37:51;;;;;;;0.40;0.30;;;4.40;99.90;;;;;;5096914;27;20774;-73
2021/12/17 10:40:29;;;;;;;1.30;1.30;;;4.40;99.90;;;;;;5078563;28;20509;-74
2021/12/17 10:43:06;;;;;;;0.80;0.70;;;4.60;99.90;;;;;;5095946;28;21028;-75
2021/12/17 10:45:42;;;;;;;0.40;0.30;;;4.70;99.90;;;;;;5096600;28;20766;-75
2021/12/17 10:48:33;;;;;;;0.75;0.75;;;4.70;99.90;;;;;;5096514;28;20407;-74
2021/12/17 10:51:13;;;;;;;0.40;0.30;;;4.80;99.90;;;;;;5096356;28;20460;-73
2021/12/17 10:53:54;;;;;;;0.40;0.30;;;4.90;99.90;;;;;;5096234;28;20419;-73
2021/12/17 10:56:26;;;;;;;0.40;0.30;;;5.10;99.90;;;;;;5097031;28;20380;-73
2021/12/17 10:58:54;;;;;;;0.90;0.60;;;5.30;99.90;;;;;;5078095;28;20396;-72
2021/12/17 11:01:29;;;;;;;0.40;0.40;;;5.30;99.90;;;;;;5096200;28;20383;-73
2021/12/17 11:04:10;;;;;;;0.40;0.30;;;5.40;99.90;;;;;;5096070;28;20396;-74
2021/12/17 11:06:48;;;;;;;0.40;0.30;;;5.70;99.90;;;;;;5078195;28;20399;-73
2021/12/17 11:09:34;;;;;;;0.40;0.30;;;5.90;99.90;;;;;;5096316;28;20389;-73
2021/12/17 11:12:07;;;;;;;0.40;0.30;;;6.00;99.90;;;;;;5094571;28;20448;-74
2021/12/17 11:14:33;;;;;;;0.40;0.40;;;5.90;99.90;;;;;;5078993;28;20410;-73
2021/12/17 11:16:59;;;;;;;0.70;0.60;;;6.80;99.90;;;;;;5095503;28;20383;-73
2021/12/17 11:19:24;;;;;;;0.70;0.60;;;7.10;99.90;;;;;;5096388;28;20392;-73
2021/12/17 11:21:50;;;;;;;0.40;0.30;;;7.20;99.90;;;;;;5095177;28;20423;-74
2021/12/17 11:24:17;;;;;;;0.40;0.30;;;7.20;99.90;;;;;;5095281;28;20467;-73
2021/12/17 11:26:44;;;;;;;0.40;0.20;;;7.40;99.90;;;;;;5094977;28;20395;-72
2021/12/17 11:29:10;;;;;;;0.40;0.30;;;7.80;99.90;;;;;;5095409;28;20486;-74
2021/12/17 11:31:36;;;;;;;0.40;0.20;;;8.40;99.90;;;;;;5079735;28;20407;-73
2021/12/17 11:34:02;;;;;;;0.40;0.30;;;7.90;99.90;;;;;;5099011;28;20781;-73
2021/12/17 11:36:28;;;;;;;0.40;0.30;;;7.50;99.90;;;;;;5100125;28;20377;-73
2021/12/17 11:39:08;;;;;;;0.40;0.20;;;7.90;99.90;;;;;;5100831;28;20376;-73
2021/12/17 11:42:24;;;;;;;0.40;0.30;;;7.50;99.90;;;;;;5098935;28;20472;-73
2021/12/17 11:45:23;;;;;;;0.40;0.30;;;7.20;99.90;;;;;;5077852;28;20988;-72
2021/12/17 11:47:41;;;;;;;0.40;0.30;;;7.10;99.90;;;;;;5098840;28;21065;-73
2021/12/17 11:50:09;;;;;;;0.80;0.80;;;7.70;99.90;;;;;;5099232;28;20449;-75
2021/12/17 11:52:35;;;;;;;0.40;0.30;;;8.00;99.90;;;;;;5079789;28;21197;-74
2021/12/17 11:55:23;;;;;;;0.40;0.30;;;7.80;99.90;;;;;;5081843;28;20432;-74
2021/12/17 11:57:52;;;;;;;0.50;0.50;;;8.00;99.90;;;;;;5080495;28;20938;-73
2021/12/17 12:00:28;;;;;;;0.40;0.30;;;7.80;99.90;;;;;;5099310;28;20435;-74
2021/12/17 12:03:10;;;;;;;0.40;0.30;;;8.10;99.90;;;;;;5098175;28;20392;-74
2021/12/17 12:05:40;;;;;;;0.70;0.50;;;8.40;99.90;;;;;;5080917;28;20519;-73
2021/12/17 12:08:28;;;;;;;0.40;0.30;;;8.80;99.90;;;;;;5098683;28;20716;-74
2021/12/17 12:11:17;;;;;;;0.40;0.30;;;8.90;99.90;;;;;;5080402;28;20902;-73
2021/12/17 12:13:45;;;;;;;0.40;0.30;;;8.70;99.90;;;;;;5085132;28;20416;-74
2021/12/17 12:16:32;;;;;;;0.40;0.30;;;8.50;99.90;;;;;;5080880;28;20422;-74
2021/12/17 12:19:08;;;;;;;0.40;0.30;;;8.70;99.90;;;;;;5098459;28;20435;-74
2021/12/17 12:21:39;;;;;;;0.40;0.30;;;8.50;99.90;;;;;;5097018;28;21376;-74
2021/12/17 12:24:13;;;;;;;0.40;0.30;;;8.30;99.90;;;;;;5099194;28;21636;-74
2021/12/17 12:26:50;;;;;;;0.40;0.30;;;7.60;99.90;;;;;;5079979;28;20388;-73
2021/12/17 12:29:18;;;;;;;0.50;0.50;;;6.70;99.90;;;;;;5098443;28;20936;-73
2021/12/17 12:31:47;;;;;;;0.40;0.22;;;6.30;99.90;;;;;;5096898;28;20381;-73
2021/12/17 12:34:16;;;;;;;0.40;0.30;;;6.00;99.90;;;;;;5098725;28;20408;-73
2021/12/17 12:36:44;;;;;;;0.40;0.30;;;6.00;99.90;;;;;;5098217;28;20399;-73
2021/12/17 12:39:27;;;;;;;0.40;0.20;;;5.80;99.90;;;;;;5099144;28;21054;-73
2021/12/17 12:42:17;;;;;;;0.40;0.30;;;5.60;99.90;;;;;;5077116;28;20533;-72
2021/12/17 12:44:46;;;;;;;0.40;0.30;;;5.60;99.90;;;;;;5079495;28;20409;-72
2021/12/17 12:47:22;;;;;;;0.40;0.30;;;5.40;99.90;;;;;;5080635;28;20647;-73
2021/12/17 12:50:07;;;;;;;1.00;0.90;;;5.30;99.90;;;;;;5097369;28;21116;-72
2021/12/17 12:52:32;;;;;;;0.40;0.30;;;5.30;99.90;;;;;;5079103;28;20393;-73
2021/12/17 12:55:28;;;;;;;0.40;0.30;;;5.30;99.90;;;;;;5097355;28;20451;-72
2021/12/17 12:58:04;;;;;;;0.40;0.30;;;5.20;99.90;;;;;;5097916;28;20381;-73
2021/12/17 13:00:41;;;;;;;2.70;0.98;;;5.40;99.90;;;;;;5080371;28;20904;-73
2021/12/17 13:03:11;;;;;;;0.40;0.40;;;5.50;99.90;;;;;;5078579;28;20475;-73
2021/12/17 13:05:38;;;;;;;1.92;1.05;;;5.40;99.90;;;;;;5098113;28;20746;-73
2021/12/17 13:08:06;;;;;;;0.40;0.30;;;5.60;99.90;;;;;;5078260;28;20476;-73
2021/12/17 13:10:36;;;;;;;0.40;0.20;;;5.60;99.90;;;;;;5097461;28;20874;-73
2021/12/17 13:15:51;;;;;;;0.40;0.30;;;5.70;99.90;;;;;;5098210;28;20392;-73
2021/12/17 13:24:16;;;;;;;1.52;1.42;;;5.70;99.90;;;;;;5097457;28;20407;-74
2021/12/17 13:26:41;;;;;;;0.40;0.30;;;5.80;99.90;;;;;;5078638;28;20483;-74
2021/12/17 13:29:13;;;;;;;3.00;0.70;;;5.60;99.90;;;;;;5096509;28;20420;-73
2021/12/17 13:31:46;;;;;;;0.70;0.70;;;5.80;99.90;;;;;;5096252;28;20450;-74
2021/12/17 13:34:18;;;;;;;0.40;0.40;;;5.90;99.90;;;;;;5096731;28;20922;-73
2021/12/17 13:37:00;;;;;;;1.20;1.00;;;5.80;99.90;;;;;;5097409;28;20969;-73
2021/12/17 13:39:28;;;;;;;0.40;0.20;;;5.90;99.90;;;;;;5079373;28;20389;-73
2021/12/17 13:41:55;;;;;;;0.40;0.30;;;5.80;99.90;;;;;;5095703;28;20391;-73
2021/12/17 13:44:33;;;;;;;0.40;0.40;;;5.60;99.90;;;;;;5096873;28;20442;-73
2021/12/17 13:47:16;;;;;;;0.40;0.20;;;5.70;99.90;;;;;;5094150;28;20388;-72
2021/12/17 13:49:48;;;;;;;0.40;0.30;;;5.70;99.90;;;;;;5096084;28;20384;-73
2021/12/17 13:52:15;;;;;;;0.70;0.60;;;5.60;99.90;;;;;;5093475;28;21136;-72
2021/12/17 13:54:44;;;;;;;1.00;1.00;;;5.60;99.90;;;;;;5098482;28;20423;-72
2021/12/17 13:57:14;;;;;;;0.40;0.40;;;5.70;99.90;;;;;;5098417;28;20465;-73
2021/12/17 13:59:40;;;;;;;0.50;0.50;;;5.70;99.90;;;;;;5100089;28;20384;-73
2021/12/17 14:02:21;;;;;;;1.00;0.90;;;5.60;99.90;;;;;;5097652;28;20385;-72
2021/12/17 14:05:07;;;;;;;0.40;0.20;;;5.80;99.90;;;;;;5098673;28;20703;-72
2021/12/17 14:07:38;;;;;;;0.40;0.20;;;5.80;99.90;;;;;;5097952;28;20392;-73
2021/12/17 14:10:10;;;;;;;0.80;0.80;;;5.80;99.90;;;;;;5098906;28;20471;-73
2021/12/17 14:12:39;;;;;;;1.00;1.00;;;5.80;99.90;;;;;;5077469;28;20388;-74
2021/12/17 14:15:20;;;;;;;0.40;0.30;;;5.80;99.90;;;;;;5098655;28;20742;-73
2021/12/17 14:17:53;;;;;;;0.80;0.60;;;5.80;99.90;;;;;;5099376;28;20393;-73
2021/12/17 14:20:22;;;;;;;0.40;0.20;;;5.80;99.90;;;;;;5098014;28;20452;-73
2021/12/17 14:23:10;;;;;;;0.40;0.40;;;5.80;99.90;;;;;;5098712;28;20448;-72
2021/12/17 14:25:42;;;;;;;0.40;0.20;;;5.70;99.90;;;;;;5097162;28;20467;-73
2021/12/17 14:28:18;;;;;;;1.20;1.10;;;5.70;99.90;;;;;;5079429;28;20791;-73
2021/12/17 14:30:52;;;;;;;0.40;0.20;;;5.70;99.90;;;;;;5097479;28;20780;-73
2021/12/17 14:33:20;;;;;;;0.50;0.40;;;5.70;99.90;;;;;;5097531;28;20422;-73
2021/12/17 14:35:48;;;;;;;0.40;0.20;;;5.50;99.90;;;;;;5079076;28;20388;-74
2021/12/17 14:38:16;;;;;;;1.10;1.10;;;5.30;99.90;;;;;;5080476;28;20687;-73
2021/12/17 14:40:52;;;;;;;0.40;0.20;;;5.40;99.90;;;;;;5097883;28;20789;-73
2021/12/17 14:43:19;;;;;;;1.70;0.90;;;5.50;99.90;;;;;;5097413;28;20548;-73
2021/12/17 14:45:59;;;;;;;1.20;0.80;;;5.60;99.90;;;;;;5098065;28;20890;-73
2021/12/17 14:49:16;;;;;;;0.45;0.45;;;5.40;99.90;;;;;;5098212;28;20999;-73
2021/12/17 15:02:40;;;;;;;0.60;0.60;;;5.00;99.90;;;;;;5097587;28;20380;-73
2021/12/17 15:04:50;;;;;;;0.60;0.60;;;5.10;99.90;;;;;;5097381;28;20951;-73
2021/12/17 15:07:18;;;;;;;0.40;0.20;;;5.10;99.90;;;;;;5102732;28;20391;-73
2021/12/17 15:09:45;;;;;;;0.40;0.40;;;5.00;99.90;;;;;;5101630;28;20376;-74
2021/12/17 15:12:37;;;;;;;0.40;0.20;;;5.00;99.90;;;;;;5080940;28;20430;-73
2021/12/17 15:15:08;;;;;;;0.40;0.30;;;5.00;99.90;;;;;;5099650;28;20470;-74
2021/12/17 15:17:35;;;;;;;0.50;0.40;;;4.90;99.90;;;;;;5101582;28;20380;-73
2021/12/17 15:20:01;;;;;;;0.40;0.20;;;4.80;99.90;;;;;;5101531;28;20384;-73
2021/12/17 15:22:27;;;;;;;0.40;0.30;;;4.80;99.90;;;;;;5100615;28;20921;-72
2021/12/17 15:24:53;;;;;;;0.50;0.40;;;4.70;99.90;;;;;;5101222;28;20938;-73
2021/12/17 15:27:20;;;;;;;0.90;0.60;;;4.60;99.90;;;;;;5102165;28;20404;-73
2021/12/17 15:29:46;;;;;;;0.60;0.60;;;4.50;99.90;;;;;;5100881;28;20411;-73
2021/12/17 15:32:12;;;;;;;0.60;0.60;;;4.40;99.90;;;;;;5100295;28;20644;-74
2021/12/17 15:34:38;;;;;;;0.40;0.40;;;4.30;99.90;;;;;;5101421;28;20412;-73
2021/12/17 15:37:04;;;;;;;0.40;0.30;;;4.30;99.90;;;;;;5100890;28;20377;-73
2021/12/17 15:39:30;;;;;;;1.08;1.05;;;4.10;99.90;;;;;;5101537;28;20384;-73
2021/12/17 15:41:55;;;;;;;0.40;0.20;;;4.00;99.90;;;;;;5101194;28;20372;-74
2021/12/17 15:44:21;;;;;;;0.40;0.20;;;4.00;99.90;;;;;;5101517;28;20384;-73
2021/12/17 15:46:50;;;;;;;0.40;0.30;;;3.90;99.90;;;;;;5101716;28;20380;-73
2021/12/17 15:49:16;;;;;;;0.40;0.20;;;3.80;99.90;;;;;;5100405;28;20380;-73
2021/12/17 15:51:42;;;;;;;3.10;1.10;;;3.80;99.90;;;;;;5082250;28;20880;-74
2021/12/17 15:54:07;;;;;;;0.40;0.20;;;3.70;99.90;;;;;;5082072;28;20440;-75
2021/12/17 15:56:34;;;;;;;0.40;0.30;;;3.50;99.90;;;;;;5101621;28;20396;-74
2021/12/17 15:59:01;;;;;;;1.55;1.45;;;3.50;99.90;;;;;;5101126;28;20888;-73
2021/12/17 16:01:27;;;;;;;0.68;0.68;;;3.30;99.90;;;;;;5099981;28;20384;-73
2021/12/17 16:03:52;;;;;;;0.40;0.30;;;3.30;99.90;;;;;;5101683;28;20380;-73
2021/12/17 16:06:20;;;;;;;0.60;0.60;;;3.30;99.90;;;;;;5082622;28;20744;-73
2021/12/17 16:08:49;;;;;;;0.52;0.43;;;3.30;99.90;;;;;;5100774;28;20391;-75
2021/12/17 16:21:58;;;;;;;0.40;0.30;;;3.00;99.90;;;;;;5099886;28;20417;-74
2021/12/17 16:24:25;;;;;;;0.45;0.43;;;2.90;99.90;;;;;;5100505;28;20391;-73
2021/12/17 16:26:51;;;;;;;0.40;0.30;;;2.90;99.90;;;;;;5100952;28;20882;-74
2021/12/17 16:29:18;;;;;;;0.50;0.50;;;2.90;99.90;;;;;;5065491;28;20416;-73
2021/12/17 16:31:46;;;;;;;2.10;1.10;;;2.90;99.90;;;;;;5099065;28;20392;-74
2021/12/17 16:34:12;;;;;;;0.40;0.30;;;2.70;99.90;;;;;;5100036;28;20412;-73
2021/12/17 16:36:40;;;;;;;0.47;0.47;;;2.90;99.90;;;;;;5100206;28;20874;-73